Airfield :
LOGIN :

Register | Disclaimer

   EN    FR    IT 

 










Legend :    VFR   Marginal VFR   IFR   Intensive IFR   Very Intensive IFR
Visi :
Ceiling :
>= 8 km
>= 3000ft
5 to 8 km
1000 to 3000 ft
1500m to 5 km
500 to 1000 ft
800 to 1500m
200 to 500 ft
< 800m
< 200 ft
Symbols :   Thunderstorms  Fog  Heavy snow  Heavy precipitations  Wind > 20 kt
SIGMETs :     Misc.  Thunderstorms  Icing  Turbulence  Mountain Waves  Volcanic Ashes






- Airport Elevation : 33 ft
- IATA code : MHZ


EGUN - RAF Mildenhall

CURRENT METAR :
  • 212356Z 25009KT 9999 FEW070 FEW250 05/05 A3001 RMK AO2A SLP166 T00540054 10059 20042 401130042 53004 $

EXPIRED METARs :
  • 212256Z 24006KT 9999 FEW250 05/05 A3001 RMK AO2A SLP166 T00520051 $
  • 212156Z 25008KT 9999 SCT250 06/04 A3000 RMK AO2A SLP163 T00560044 $

TAF TAF EGUN
Valid from the 21 at 20:00 until the 23 at 02:00 UTC


212000Z 2120/2302 27012KT 9999 FEW040 SCT250 QNH2999INS
BECMG 2121/2122 26012KT 9999 FEW020 BKN040 600402 QNH3000INS
BECMG 2201/2202 26010G20KT 9999 SCT020 SCT040 510003 QNH3000INS
BECMG 2208/2209 29015G25KT 9999 BKN020 OVC040 610404 510003 QNH3004INS
BECMG 2215/2216 28010G15KT 9999 SCT020 BKN050 OVC070 QNH3013INS
BECMG 2219/2220 26009KT 9999 SCT015 BKN020 OVC050 QNH3019INS
BECMG 2222/2223 26009KT 9999 SCT020 BKN060 QNH3022INS TX12/2212Z TN03/2204Z



MET'MAP, your aeronautical weather chart ! - Copyright ORBIFLY December 2007 - Disclaimer

ORBIFLY MET'MAP TEAM :

Programming & Development : Alexandra Zaïnal
Concept & original design : Baudouin d'Aumeries
Assistance for programming : Marc-Olivier Méhu
Technical & hardware support : Manuel Goepfert

Contact : metmap@orbifly.com




SOURCES & CREDITS :

   NOAA